createdAt,value
2022-09-23T00:00:50.428Z,16.40
2022-09-23T00:03:17.386Z,16.40
2022-09-23T00:05:44.510Z,16.40
2022-09-23T00:08:11.626Z,16.40
2022-09-23T00:10:39.508Z,16.40
2022-09-23T00:13:06.482Z,16.40
2022-09-23T00:15:38.404Z,16.40
2022-09-23T00:18:05.468Z,16.40
2022-09-23T00:20:36.647Z,16.40
2022-09-23T00:23:03.575Z,16.40
2022-09-23T00:25:30.453Z,16.40
2022-09-23T00:27:58.950Z,16.40
2022-09-23T00:30:25.903Z,16.40
2022-09-23T00:32:53.136Z,16.50
2022-09-23T00:35:20.296Z,16.50
2022-09-23T00:37:47.180Z,16.50
2022-09-23T00:40:14.293Z,16.60
2022-09-23T00:42:52.040Z,16.60
2022-09-23T00:45:19.415Z,16.70
2022-09-23T00:47:56.728Z,16.60
2022-09-23T00:50:25.854Z,16.70
2022-09-23T00:52:54.311Z,16.60
2022-09-23T00:55:28.692Z,16.60
2022-09-23T00:57:57.148Z,16.60
2022-09-23T01:00:24.114Z,16.50
2022-09-23T01:02:51.654Z,16.30
2022-09-23T01:05:18.971Z,16.20
2022-09-23T01:07:46.188Z,16.20
2022-09-23T01:10:13.886Z,16.20
2022-09-23T01:13:05.726Z,16.10
2022-09-23T01:15:59.750Z,16.10
2022-09-23T01:18:29.816Z,16.00
2022-09-23T01:21:07.122Z,15.90
2022-09-23T01:24:11.120Z,15.90
2022-09-23T01:27:09.116Z,15.90
2022-09-23T01:29:41.333Z,15.90
2022-09-23T01:32:23.290Z,15.90
2022-09-23T01:34:52.020Z,15.90
2022-09-23T01:37:28.530Z,15.90
2022-09-23T01:40:04.524Z,15.90
2022-09-23T01:42:32.792Z,15.90
2022-09-23T01:45:46.619Z,15.90
2022-09-23T01:48:23.828Z,15.90
2022-09-23T01:50:57.481Z,16.00
2022-09-23T01:53:33.051Z,15.90
2022-09-23T01:56:03.523Z,15.90
2022-09-23T01:58:41.965Z,16.00
2022-09-23T02:01:09.247Z,16.00
2022-09-23T02:03:44.963Z,15.90
2022-09-23T02:06:15.562Z,15.90
2022-09-23T02:08:47.788Z,16.00
2022-09-23T02:11:15.569Z,16.00
2022-09-23T02:13:59.983Z,16.00
2022-09-23T02:16:42.323Z,16.00
2022-09-23T02:19:28.005Z,16.00
2022-09-23T02:22:03.883Z,16.00
2022-09-23T02:24:31.645Z,16.00
2022-09-23T02:27:20.584Z,16.00
2022-09-23T02:29:59.521Z,16.00
2022-09-23T02:33:00.805Z,16.00
2022-09-23T02:35:35.506Z,15.90
2022-09-23T02:38:27.353Z,15.90
2022-09-23T02:41:01.623Z,16.00
2022-09-23T02:43:53.957Z,15.90
2022-09-23T02:46:21.230Z,16.00
2022-09-23T02:48:56.883Z,16.00
2022-09-23T02:51:28.891Z,16.10
2022-09-23T02:53:56.488Z,16.10
2022-09-23T02:56:23.356Z,16.10
2022-09-23T02:58:51.946Z,16.00
2022-09-23T03:01:35.085Z,16.10
2022-09-23T03:04:34.175Z,16.00
2022-09-23T03:07:09.025Z,16.10
2022-09-23T03:09:38.802Z,16.10
2022-09-23T03:12:21.602Z,16.10
2022-09-23T03:15:00.539Z,16.10
2022-09-23T03:17:58.996Z,16.20
2022-09-23T03:20:34.228Z,16.20
2022-09-23T03:23:03.431Z,16.20
2022-09-23T03:25:34.556Z,16.20
2022-09-23T03:28:01.857Z,16.30
2022-09-23T03:30:28.926Z,16.30
2022-09-23T03:32:55.816Z,16.30
2022-09-23T03:35:24.244Z,16.20
2022-09-23T03:38:16.067Z,16.30
2022-09-23T03:40:43.764Z,16.30
2022-09-23T03:43:13.415Z,16.20
2022-09-23T03:45:41.377Z,16.10
2022-09-23T03:48:08.365Z,16.00
2022-09-23T03:50:39.243Z,16.00
2022-09-23T03:53:06.977Z,16.00
2022-09-23T03:55:34.849Z,16.00
2022-09-23T03:58:03.247Z,16.00
2022-09-23T04:00:30.093Z,16.00
2022-09-23T04:02:57.307Z,16.00
2022-09-23T04:05:24.187Z,16.00
2022-09-23T04:07:51.179Z,15.90
2022-09-23T04:10:18.223Z,15.90
2022-09-23T04:12:45.185Z,15.90
2022-09-23T04:15:12.362Z,15.80
2022-09-23T04:17:39.284Z,15.80
2022-09-23T04:20:06.600Z,15.90
2022-09-23T04:22:34.369Z,15.90
2022-09-23T04:25:01.296Z,15.90
2022-09-23T04:27:28.167Z,15.90
2022-09-23T04:29:55.037Z,15.90
2022-09-23T04:32:22.064Z,15.90
2022-09-23T04:34:49.140Z,15.90
2022-09-23T04:37:16.140Z,15.90
2022-09-23T04:39:43.399Z,15.90
2022-09-23T04:42:10.409Z,15.90
2022-09-23T04:44:38.942Z,15.90
2022-09-23T04:47:06.048Z,15.90
2022-09-23T04:49:33.716Z,15.90
2022-09-23T04:52:00.963Z,15.90
2022-09-23T04:54:28.187Z,15.90
2022-09-23T04:56:55.752Z,15.90
2022-09-23T04:59:22.714Z,15.90
2022-09-23T05:01:52.016Z,15.90
2022-09-23T05:04:18.968Z,15.90
2022-09-23T05:06:46.495Z,15.90
2022-09-23T05:09:16.447Z,15.90
2022-09-23T05:11:47.273Z,15.90
2022-09-23T05:14:14.536Z,16.00
2022-09-23T05:16:41.541Z,16.00
2022-09-23T05:19:08.921Z,16.00
2022-09-23T05:21:37.172Z,16.00
2022-09-23T05:24:04.292Z,16.10
2022-09-23T05:26:32.019Z,16.00
2022-09-23T05:28:59.510Z,16.00
2022-09-23T05:31:27.959Z,16.00
2022-09-23T05:33:59.670Z,16.10
2022-09-23T05:36:27.557Z,16.00
2022-09-23T05:38:56.625Z,16.00
2022-09-23T05:41:23.844Z,16.00
2022-09-23T05:43:51.851Z,16.10
2022-09-23T05:46:27.933Z,16.00
2022-09-23T05:49:02.225Z,16.10
2022-09-23T05:51:31.178Z,16.00
2022-09-23T05:53:58.830Z,16.00
2022-09-23T05:56:26.874Z,16.00
2022-09-23T05:58:55.419Z,16.10
2022-09-23T06:01:27.736Z,16.00
2022-09-23T06:03:56.015Z,16.00
2022-09-23T06:06:32.811Z,16.00
2022-09-23T06:09:00.290Z,16.00
2022-09-23T06:11:29.891Z,16.00
2022-09-23T06:14:00.993Z,16.00
2022-09-23T06:16:28.725Z,15.90
2022-09-23T06:18:55.909Z,15.90
2022-09-23T06:21:22.992Z,15.90
2022-09-23T06:23:52.733Z,15.90
2022-09-23T06:26:22.634Z,15.90
2022-09-23T06:28:50.266Z,15.90
2022-09-23T06:31:17.484Z,15.90
2022-09-23T06:33:45.054Z,15.90
2022-09-23T06:36:16.354Z,16.00
2022-09-23T06:38:51.460Z,16.00
2022-09-23T06:41:20.704Z,16.00
2022-09-23T06:43:48.082Z,16.00
2022-09-23T06:46:16.251Z,15.90
2022-09-23T06:48:46.182Z,15.80
2022-09-23T06:51:19.368Z,15.90
2022-09-23T06:53:47.619Z,15.90
2022-09-23T06:56:14.589Z,15.90
2022-09-23T06:58:41.541Z,15.90
2022-09-23T07:01:12.343Z,15.90
2022-09-23T07:03:39.413Z,15.80
2022-09-23T07:06:06.891Z,15.80
2022-09-23T07:08:34.088Z,15.90
2022-09-23T07:11:03.516Z,15.90
2022-09-23T07:13:30.707Z,15.90
2022-09-23T07:16:02.089Z,16.00
2022-09-23T07:18:36.621Z,16.00
2022-09-23T07:21:08.090Z,16.00
2022-09-23T07:23:35.130Z,16.10
2022-09-23T07:26:02.171Z,16.10
2022-09-23T07:28:29.239Z,16.30
2022-09-23T07:31:00.361Z,16.50
2022-09-23T07:33:33.077Z,16.50
2022-09-23T07:36:05.160Z,16.50
2022-09-23T07:38:32.049Z,16.40
2022-09-23T07:41:09.337Z,16.30
2022-09-23T07:43:37.186Z,16.30
2022-09-23T07:46:10.299Z,16.40
2022-09-23T07:48:37.631Z,16.40
2022-09-23T07:51:09.462Z,16.40
2022-09-23T07:53:36.975Z,16.30
2022-09-23T07:56:05.777Z,16.30
2022-09-23T07:58:33.172Z,16.30
2022-09-23T08:01:07.680Z,16.30
2022-09-23T08:03:35.245Z,16.30
2022-09-23T08:06:11.196Z,16.30
2022-09-23T08:08:43.548Z,16.30
2022-09-23T08:11:11.853Z,16.30
2022-09-23T08:13:38.730Z,16.40
2022-09-23T08:16:06.795Z,16.40
2022-09-23T08:18:34.160Z,16.40
2022-09-23T08:21:01.571Z,16.50
2022-09-23T08:23:33.593Z,16.50
2022-09-23T08:26:02.101Z,16.50
2022-09-23T08:28:29.117Z,16.50
2022-09-23T08:30:56.092Z,16.50
2022-09-23T08:33:23.887Z,16.50
2022-09-23T08:35:51.500Z,16.50
2022-09-23T08:38:19.028Z,16.60
2022-09-23T08:40:48.520Z,16.60
2022-09-23T08:43:26.840Z,16.70
2022-09-23T08:45:54.404Z,16.70
2022-09-23T08:48:31.243Z,16.80
2022-09-23T08:51:26.237Z,16.80
2022-09-23T08:53:53.292Z,16.80
2022-09-23T08:56:22.425Z,16.80
2022-09-23T08:59:16.795Z,16.80
2022-09-23T09:01:45.222Z,16.90
2022-09-23T09:04:16.531Z,17.00
2022-09-23T09:07:24.531Z,17.00
2022-09-23T09:10:16.783Z,17.10
2022-09-23T09:12:48.224Z,17.10
2022-09-23T09:15:27.378Z,17.10
2022-09-23T09:18:12.411Z,17.00
2022-09-23T09:21:00.651Z,17.00
2022-09-23T09:23:49.861Z,17.10
2022-09-23T09:26:23.447Z,17.10
2022-09-23T09:28:59.072Z,17.00
2022-09-23T09:31:38.093Z,16.80
2022-09-23T09:34:21.132Z,16.80
2022-09-23T09:36:57.822Z,16.70
2022-09-23T09:39:26.324Z,16.80
2022-09-23T09:41:55.499Z,16.70
2022-09-23T09:44:42.902Z,16.80
2022-09-23T09:47:15.488Z,16.70
2022-09-23T09:49:59.900Z,16.80
2022-09-23T09:52:29.743Z,16.80
2022-09-23T09:55:15.167Z,16.90
2022-09-23T09:57:48.065Z,16.90
2022-09-23T10:00:26.486Z,17.00
2022-09-23T10:03:18.683Z,17.10
2022-09-23T10:05:47.549Z,17.10
2022-09-23T10:08:33.546Z,17.10
2022-09-23T10:11:04.860Z,17.20
2022-09-23T10:13:32.046Z,17.20
2022-09-23T10:16:03.116Z,17.20
2022-09-23T10:18:32.082Z,17.20
2022-09-23T10:21:10.832Z,17.30
2022-09-23T10:23:42.705Z,17.20
2022-09-23T10:26:10.314Z,17.30
2022-09-23T10:28:47.525Z,17.30
2022-09-23T10:31:34.528Z,17.30
2022-09-23T10:34:26.371Z,17.30
2022-09-23T10:37:03.110Z,17.30
2022-09-23T10:39:48.334Z,17.30
2022-09-23T10:42:45.295Z,17.40
2022-09-23T10:45:39.854Z,17.50
2022-09-23T10:48:36.179Z,17.60
2022-09-23T10:51:26.085Z,17.70
2022-09-23T10:54:02.726Z,17.80
2022-09-23T10:56:38.714Z,17.90
2022-09-23T10:59:12.249Z,18.10
2022-09-23T11:01:51.272Z,18.10
2022-09-23T11:04:54.759Z,18.10
2022-09-23T11:07:38.971Z,18.20
2022-09-23T11:10:46.515Z,18.20
2022-09-23T11:13:24.926Z,18.20
2022-09-23T11:16:18.658Z,18.20
2022-09-23T11:18:48.455Z,18.30
2022-09-23T11:21:21.129Z,18.40
2022-09-23T11:23:56.936Z,18.40
2022-09-23T11:27:08.506Z,18.40
2022-09-23T11:29:53.657Z,18.40
2022-09-23T11:32:42.225Z,18.50
2022-09-23T11:35:25.046Z,18.50
2022-09-23T11:37:55.946Z,18.50
2022-09-23T11:40:24.533Z,18.40
2022-09-23T11:42:58.232Z,18.40
2022-09-23T11:45:29.202Z,18.50
2022-09-23T11:48:27.770Z,18.40
2022-09-23T11:51:21.545Z,18.40
2022-09-23T11:54:19.745Z,18.50
2022-09-23T11:56:53.096Z,18.60
2022-09-23T11:59:40.669Z,18.70
2022-09-23T12:02:25.745Z,18.80
2022-09-23T12:05:10.673Z,18.80
2022-09-23T12:07:46.670Z,18.90
2022-09-23T12:10:16.814Z,19.00
2022-09-23T12:12:58.605Z,19.00
2022-09-23T12:15:39.508Z,19.00
2022-09-23T12:18:10.643Z,19.20
2022-09-23T12:20:43.660Z,19.40
2022-09-23T12:23:25.707Z,19.50
2022-09-23T12:26:01.938Z,19.40
2022-09-23T12:28:33.699Z,19.30
2022-09-23T12:31:01.217Z,19.20
2022-09-23T12:33:30.499Z,19.10
2022-09-23T12:36:07.585Z,19.20
2022-09-23T12:38:53.582Z,19.30
2022-09-23T12:41:23.998Z,19.40
2022-09-23T12:43:56.897Z,19.40
2022-09-23T12:46:25.737Z,19.40
2022-09-23T12:48:58.951Z,19.30
2022-09-23T12:51:27.286Z,19.30
2022-09-23T12:53:59.697Z,19.30
2022-09-23T12:56:55.966Z,19.40
2022-09-23T12:59:30.621Z,19.20
2022-09-23T13:01:58.151Z,19.20
2022-09-23T13:04:46.788Z,19.30
2022-09-23T13:07:16.574Z,19.30
2022-09-23T13:09:46.805Z,19.30
2022-09-23T13:12:40.957Z,19.20
2022-09-23T13:15:34.020Z,19.30
2022-09-23T13:18:20.285Z,19.40
2022-09-23T13:20:48.513Z,19.40
2022-09-23T13:23:33.866Z,19.50
2022-09-23T13:26:01.962Z,19.50
2022-09-23T13:28:33.111Z,19.50
2022-09-23T13:31:04.792Z,19.50
2022-09-23T13:33:34.596Z,19.50
2022-09-23T13:36:02.754Z,19.40
2022-09-23T13:38:32.072Z,19.40
2022-09-23T13:41:09.882Z,19.30
2022-09-23T13:43:50.987Z,19.30
2022-09-23T13:46:22.803Z,19.30
2022-09-23T13:48:51.988Z,19.40
2022-09-23T13:51:23.277Z,19.30
2022-09-23T13:54:00.951Z,19.10
2022-09-23T13:56:32.255Z,19.10
2022-09-23T13:59:24.787Z,19.20
2022-09-23T14:02:02.188Z,19.30
2022-09-23T14:04:29.200Z,19.40
2022-09-23T14:06:56.065Z,19.40
2022-09-23T14:09:24.936Z,19.40
2022-09-23T14:11:52.223Z,19.40
2022-09-23T14:14:19.522Z,19.40
2022-09-23T14:16:49.081Z,19.50
2022-09-23T14:19:20.475Z,19.50
2022-09-23T14:21:51.701Z,19.50
2022-09-23T14:24:21.488Z,19.40
2022-09-23T14:27:06.857Z,19.50
2022-09-23T14:29:35.222Z,19.50
2022-09-23T14:32:04.592Z,19.60
2022-09-23T14:34:50.844Z,19.70
2022-09-23T14:37:51.737Z,19.70
2022-09-23T14:40:22.803Z,19.90
2022-09-23T14:42:52.195Z,20.00
2022-09-23T14:45:21.462Z,20.10
2022-09-23T14:48:25.734Z,20.30
2022-09-23T14:50:56.390Z,20.40
2022-09-23T14:53:23.316Z,20.50
2022-09-23T14:56:08.555Z,20.50
2022-09-23T14:58:52.632Z,20.40
2022-09-23T15:01:26.534Z,20.30
2022-09-23T15:03:54.511Z,20.20
2022-09-23T15:06:22.383Z,20.10
2022-09-23T15:08:49.332Z,19.80
2022-09-23T15:11:16.334Z,19.60
2022-09-23T15:13:46.276Z,19.50
2022-09-23T15:16:14.407Z,19.50
2022-09-23T15:18:43.188Z,19.50
2022-09-23T15:21:14.650Z,19.50
2022-09-23T15:23:44.594Z,19.50
2022-09-23T15:26:18.242Z,19.50
2022-09-23T15:28:45.850Z,19.50
2022-09-23T15:31:17.575Z,19.50
2022-09-23T15:33:48.266Z,19.60
2022-09-23T15:36:16.925Z,19.60
2022-09-23T15:38:44.258Z,19.60
2022-09-23T15:41:11.263Z,19.60
2022-09-23T15:43:40.011Z,19.60
2022-09-23T15:46:08.843Z,19.60
2022-09-23T15:48:38.689Z,19.70
2022-09-23T15:51:07.084Z,19.70
2022-09-23T15:53:34.339Z,19.80
2022-09-23T15:56:01.639Z,19.80
2022-09-23T15:58:28.895Z,19.70
2022-09-23T16:00:57.249Z,19.60
2022-09-23T16:03:28.891Z,19.50
2022-09-23T16:05:58.632Z,19.50
2022-09-23T16:08:26.072Z,19.50
2022-09-23T16:10:55.553Z,19.50
2022-09-23T16:13:23.953Z,19.50
2022-09-23T16:15:51.033Z,19.60
2022-09-23T16:18:18.357Z,19.60
2022-09-23T16:20:45.974Z,19.70
2022-09-23T16:23:34.782Z,19.70
2022-09-23T16:26:03.017Z,19.80
2022-09-23T16:28:30.022Z,19.80
2022-09-23T16:30:56.988Z,19.80
2022-09-23T16:33:24.236Z,19.70
2022-09-23T16:35:51.850Z,19.60
2022-09-23T16:38:18.883Z,19.50
2022-09-23T16:40:47.328Z,19.50
2022-09-23T16:43:14.649Z,19.40
2022-09-23T16:45:41.699Z,19.30
2022-09-23T16:48:11.429Z,19.30
2022-09-23T16:50:40.099Z,19.20
2022-09-23T16:53:07.076Z,19.20
2022-09-23T16:55:34.029Z,19.10
2022-09-23T16:58:01.149Z,19.10
2022-09-23T17:00:46.984Z,19.10
2022-09-23T17:03:32.657Z,19.00
2022-09-23T17:06:01.540Z,18.90
2022-09-23T17:08:31.571Z,18.80
2022-09-23T17:10:59.049Z,18.80
2022-09-23T17:13:29.740Z,18.70
2022-09-23T17:15:57.746Z,18.60
2022-09-23T17:18:24.889Z,18.60
2022-09-23T17:20:59.465Z,18.60
2022-09-23T17:23:27.004Z,18.50
2022-09-23T17:25:54.229Z,18.40
2022-09-23T17:28:21.848Z,18.40
2022-09-23T17:30:58.136Z,18.30
2022-09-23T17:33:29.263Z,18.30
2022-09-23T17:35:57.005Z,18.30
2022-09-23T17:38:29.437Z,18.30
2022-09-23T17:40:59.161Z,18.30
2022-09-23T17:43:26.567Z,18.20
2022-09-23T17:45:54.610Z,18.20
2022-09-23T17:48:22.638Z,18.10
2022-09-23T17:50:56.196Z,18.10
2022-09-23T17:53:24.074Z,18.10
2022-09-23T17:56:01.958Z,18.10
2022-09-23T17:58:29.775Z,18.00
2022-09-23T18:00:57.035Z,18.00
2022-09-23T18:03:24.815Z,18.00
2022-09-23T18:05:51.942Z,18.00
2022-09-23T18:08:19.076Z,17.90
2022-09-23T18:10:46.095Z,17.80
2022-09-23T18:13:13.163Z,17.80
2022-09-23T18:15:40.158Z,17.80
2022-09-23T18:18:07.187Z,17.70
2022-09-23T18:20:34.102Z,17.70
2022-09-23T18:23:01.008Z,17.70
2022-09-23T18:25:39.126Z,17.70
2022-09-23T18:28:07.124Z,17.70
2022-09-23T18:30:34.066Z,17.60
2022-09-23T18:33:02.258Z,17.70
2022-09-23T18:35:29.183Z,17.60
2022-09-23T18:37:56.412Z,17.60
2022-09-23T18:40:23.453Z,17.60
2022-09-23T18:42:50.569Z,17.60
2022-09-23T18:45:17.820Z,17.50
2022-09-23T18:48:03.416Z,17.50
2022-09-23T18:50:40.323Z,17.50
2022-09-23T18:53:08.361Z,17.50
2022-09-23T18:55:36.180Z,17.50
2022-09-23T18:58:03.380Z,17.50
2022-09-23T19:00:30.615Z,17.50
2022-09-23T19:02:57.794Z,17.50
2022-09-23T19:05:24.824Z,17.50
2022-09-23T19:07:51.967Z,17.50
2022-09-23T19:10:19.249Z,17.50
2022-09-23T19:12:46.718Z,17.40
2022-09-23T19:15:14.179Z,17.50
2022-09-23T19:17:41.245Z,17.50
2022-09-23T19:20:09.531Z,17.50
2022-09-23T19:22:36.529Z,17.50
2022-09-23T19:25:03.842Z,17.40
2022-09-23T19:27:30.873Z,17.40
2022-09-23T19:29:57.887Z,17.40
2022-09-23T19:32:26.839Z,17.40
2022-09-23T19:34:53.810Z,17.40
2022-09-23T19:37:21.097Z,17.40
2022-09-23T19:39:48.256Z,17.40
2022-09-23T19:42:15.264Z,17.40
2022-09-23T19:44:42.419Z,17.40
2022-09-23T19:47:15.392Z,17.40
2022-09-23T19:49:42.612Z,17.40
2022-09-23T19:52:09.541Z,17.30
2022-09-23T19:54:37.226Z,17.30
2022-09-23T19:57:04.330Z,17.20
2022-09-23T19:59:31.409Z,17.30
2022-09-23T20:01:58.351Z,17.30
2022-09-23T20:04:26.290Z,17.30
2022-09-23T20:06:53.231Z,17.20
2022-09-23T20:09:20.694Z,17.20
2022-09-23T20:11:47.761Z,17.20
2022-09-23T20:14:15.218Z,17.20
2022-09-23T20:16:42.198Z,17.20
2022-09-23T20:19:09.866Z,17.10
2022-09-23T20:21:36.747Z,17.10
2022-09-23T20:24:07.632Z,17.00
2022-09-23T20:26:53.303Z,17.00
2022-09-23T20:29:20.188Z,17.00
2022-09-23T20:31:47.541Z,16.90
2022-09-23T20:34:14.645Z,16.90
2022-09-23T20:36:42.307Z,16.90
2022-09-23T20:39:09.793Z,16.90
2022-09-23T20:41:37.966Z,16.90
2022-09-23T20:44:07.558Z,16.80
2022-09-23T20:46:35.107Z,16.80
2022-09-23T20:49:02.771Z,16.80
2022-09-23T20:51:29.808Z,16.80
2022-09-23T20:53:56.702Z,16.80
2022-09-23T20:56:23.679Z,16.70
2022-09-23T20:58:54.087Z,16.70
2022-09-23T21:01:21.220Z,16.70
2022-09-23T21:03:49.340Z,16.70
2022-09-23T21:06:17.030Z,16.60
2022-09-23T21:08:47.132Z,16.60
2022-09-23T21:11:15.659Z,16.60
2022-09-23T21:13:47.179Z,16.60
2022-09-23T21:16:16.140Z,16.60
2022-09-23T21:18:43.672Z,16.60
2022-09-23T21:21:10.937Z,16.50
2022-09-23T21:23:38.821Z,16.50
2022-09-23T21:26:13.023Z,16.50
2022-09-23T21:28:40.599Z,16.50
2022-09-23T21:31:28.616Z,16.50
2022-09-23T21:34:00.248Z,16.60
2022-09-23T21:36:28.240Z,16.50
2022-09-23T21:38:58.239Z,16.50
2022-09-23T21:41:25.340Z,16.50
2022-09-23T21:43:52.421Z,16.40
2022-09-23T21:46:20.801Z,16.40
2022-09-23T21:48:53.743Z,16.30
2022-09-23T21:51:28.471Z,16.30
2022-09-23T21:53:56.833Z,16.20
2022-09-23T21:56:25.293Z,16.10
2022-09-23T21:58:53.643Z,16.10
2022-09-23T22:01:21.769Z,16.00
2022-09-23T22:03:50.883Z,16.00
2022-09-23T22:06:21.533Z,16.00
2022-09-23T22:09:02.387Z,16.00
2022-09-23T22:11:49.295Z,16.00
2022-09-23T22:14:17.194Z,15.90
2022-09-23T22:16:44.256Z,15.90
2022-09-23T22:19:12.355Z,15.80
2022-09-23T22:21:40.074Z,15.80
2022-09-23T22:24:08.420Z,15.80
2022-09-23T22:26:37.530Z,15.80
2022-09-23T22:29:23.809Z,15.70
2022-09-23T22:32:09.576Z,15.70
2022-09-23T22:34:49.425Z,15.70
2022-09-23T22:37:18.244Z,15.70
2022-09-23T22:39:45.297Z,15.70
2022-09-23T22:42:13.163Z,15.60
2022-09-23T22:44:40.241Z,15.60
2022-09-23T22:47:07.352Z,15.60
2022-09-23T22:49:34.269Z,15.50
2022-09-23T22:52:04.065Z,15.40
2022-09-23T22:54:33.912Z,15.40
2022-09-23T22:57:03.386Z,15.30
2022-09-23T22:59:30.329Z,15.30
2022-09-23T23:01:57.694Z,15.40
2022-09-23T23:04:24.613Z,15.30
2022-09-23T23:06:52.163Z,15.30
2022-09-23T23:09:19.365Z,15.30
2022-09-23T23:11:47.180Z,15.30
2022-09-23T23:14:16.765Z,15.20
2022-09-23T23:16:45.263Z,15.10
2022-09-23T23:19:14.150Z,15.10
2022-09-23T23:21:43.459Z,15.10
2022-09-23T23:24:18.702Z,15.00
2022-09-23T23:26:45.721Z,14.90
2022-09-23T23:29:13.794Z,14.90
2022-09-23T23:31:41.016Z,14.90
2022-09-23T23:34:08.486Z,14.80
2022-09-23T23:36:35.400Z,14.80
2022-09-23T23:39:02.284Z,14.80
2022-09-23T23:41:29.206Z,14.80
2022-09-23T23:43:58.387Z,14.70
2022-09-23T23:46:26.575Z,14.70
2022-09-23T23:48:54.241Z,14.60
2022-09-23T23:51:21.438Z,14.60
2022-09-23T23:53:48.417Z,14.60
2022-09-23T23:56:17.600Z,14.50
2022-09-23T23:58:44.936Z,14.40
